sensor_id;sensor_type;location;lat;lon;timestamp;temperature;humidity
72355;SHT30;60314;55.040;73.076;2022-10-04T00:03:15;-2.99;73.17
72355;SHT30;60314;55.040;73.076;2022-10-04T00:05:51;-2.94;72.98
72355;SHT30;60314;55.040;73.076;2022-10-04T00:08:43;-2.89;72.73
72355;SHT30;60314;55.040;73.076;2022-10-04T00:14:18;-2.98;71.58
72355;SHT30;60314;55.040;73.076;2022-10-04T00:16:46;-3.06;71.26
72355;SHT30;60314;55.040;73.076;2022-10-04T00:24:32;-3.05;71.73
72355;SHT30;60314;55.040;73.076;2022-10-04T00:27:28;-3.12;72.33
72355;SHT30;60314;55.040;73.076;2022-10-04T00:38:16;-3.01;72.80
72355;SHT30;60314;55.040;73.076;2022-10-04T00:40:56;-2.99;72.74
72355;SHT30;60314;55.040;73.076;2022-10-04T00:43:32;-2.99;73.06
72355;SHT30;60314;55.040;73.076;2022-10-04T00:46:14;-3.04;73.12
72355;SHT30;60314;55.040;73.076;2022-10-04T00:48:47;-3.08;72.76
72355;SHT30;60314;55.040;73.076;2022-10-04T00:51:38;-2.99;72.94
72355;SHT30;60314;55.040;73.076;2022-10-04T00:54:29;-2.96;72.57
72355;SHT30;60314;55.040;73.076;2022-10-04T00:57:13;-2.88;72.27
72355;SHT30;60314;55.040;73.076;2022-10-04T00:59:41;-2.84;72.25
72355;SHT30;60314;55.040;73.076;2022-10-04T01:02:19;-2.83;72.71
72355;SHT30;60314;55.040;73.076;2022-10-04T01:04:56;-2.80;72.76
72355;SHT30;60314;55.040;73.076;2022-10-04T01:10:03;-2.68;73.68
72355;SHT30;60314;55.040;73.076;2022-10-04T01:12:40;-2.61;73.61
72355;SHT30;60314;55.040;73.076;2022-10-04T01:15:41;-2.54;73.72
72355;SHT30;60314;55.040;73.076;2022-10-04T01:18:18;-2.54;73.58
72355;SHT30;60314;55.040;73.076;2022-10-04T01:23:50;-2.40;73.38
72355;SHT30;60314;55.040;73.076;2022-10-04T01:29:05;-2.21;74.16
72355;SHT30;60314;55.040;73.076;2022-10-04T01:31:35;-2.22;74.60
72355;SHT30;60314;55.040;73.076;2022-10-04T01:34:03;-2.14;74.77
72355;SHT30;60314;55.040;73.076;2022-10-04T01:36:31;-1.98;74.85
72355;SHT30;60314;55.040;73.076;2022-10-04T01:38:58;-1.86;75.27
72355;SHT30;60314;55.040;73.076;2022-10-04T01:41:47;-1.78;75.54
72355;SHT30;60314;55.040;73.076;2022-10-04T01:44:32;-1.68;76.05
72355;SHT30;60314;55.040;73.076;2022-10-04T01:47:16;-1.54;76.08
72355;SHT30;60314;55.040;73.076;2022-10-04T01:49:45;-1.40;76.00
72355;SHT30;60314;55.040;73.076;2022-10-04T01:52:28;-1.16;76.11
72355;SHT30;60314;55.040;73.076;2022-10-04T01:55:02;-1.00;75.91
72355;SHT30;60314;55.040;73.076;2022-10-04T01:57:49;-0.78;75.59
72355;SHT30;60314;55.040;73.076;2022-10-04T02:00:19;-0.62;75.45
72355;SHT30;60314;55.040;73.076;2022-10-04T02:03:00;-0.44;74.78
72355;SHT30;60314;55.040;73.076;2022-10-04T02:05:39;-0.19;74.99
72355;SHT30;60314;55.040;73.076;2022-10-04T02:08:11;-0.07;74.57
72355;SHT30;60314;55.040;73.076;2022-10-04T02:10:39;0.04;74.81
72355;SHT30;60314;55.040;73.076;2022-10-04T02:13:12;0.17;74.91
72355;SHT30;60314;55.040;73.076;2022-10-04T02:15:39;0.27;74.78
72355;SHT30;60314;55.040;73.076;2022-10-04T02:18:13;0.37;74.90
72355;SHT30;60314;55.040;73.076;2022-10-04T02:20:41;0.48;74.87
72355;SHT30;60314;55.040;73.076;2022-10-04T02:23:09;0.60;74.29
72355;SHT30;60314;55.040;73.076;2022-10-04T02:25:37;0.72;74.15
72355;SHT30;60314;55.040;73.076;2022-10-04T02:28:09;0.89;74.15
72355;SHT30;60314;55.040;73.076;2022-10-04T02:30:37;1.02;74.12
72355;SHT30;60314;55.040;73.076;2022-10-04T02:33:05;1.13;73.60
72355;SHT30;60314;55.040;73.076;2022-10-04T02:35:35;1.29;73.14
72355;SHT30;60314;55.040;73.076;2022-10-04T02:38:21;1.43;73.45
72355;SHT30;60314;55.040;73.076;2022-10-04T02:43:36;1.74;72.30
72355;SHT30;60314;55.040;73.076;2022-10-04T02:46:08;1.91;72.13
72355;SHT30;60314;55.040;73.076;2022-10-04T02:48:48;2.09;71.57
72355;SHT30;60314;55.040;73.076;2022-10-04T02:53:49;2.35;70.78
72355;SHT30;60314;55.040;73.076;2022-10-04T02:56:17;2.52;70.41
72355;SHT30;60314;55.040;73.076;2022-10-04T02:58:45;2.64;70.61
72355;SHT30;60314;55.040;73.076;2022-10-04T03:04:05;2.94;69.61
72355;SHT30;60314;55.040;73.076;2022-10-04T03:06:31;3.05;70.02
72355;SHT30;60314;55.040;73.076;2022-10-04T03:09:02;3.21;69.98
72355;SHT30;60314;55.040;73.076;2022-10-04T03:11:33;3.39;69.36
72355;SHT30;60314;55.040;73.076;2022-10-04T03:14:03;3.56;68.97
72355;SHT30;60314;55.040;73.076;2022-10-04T03:16:36;3.69;68.74
72355;SHT30;60314;55.040;73.076;2022-10-04T03:19:05;3.83;68.88
72355;SHT30;60314;55.040;73.076;2022-10-04T03:21:34;3.97;67.66
72355;SHT30;60314;55.040;73.076;2022-10-04T03:24:03;4.07;66.13
72355;SHT30;60314;55.040;73.076;2022-10-04T03:26:41;4.14;65.55
72355;SHT30;60314;55.040;73.076;2022-10-04T03:29:10;4.21;65.74
72355;SHT30;60314;55.040;73.076;2022-10-04T03:31:40;4.31;64.60
72355;SHT30;60314;55.040;73.076;2022-10-04T03:34:37;4.33;63.23
72355;SHT30;60314;55.040;73.076;2022-10-04T03:37:10;4.37;63.32
72355;SHT30;60314;55.040;73.076;2022-10-04T03:39:44;4.43;62.73
72355;SHT30;60314;55.040;73.076;2022-10-04T03:42:20;4.50;62.71
72355;SHT30;60314;55.040;73.076;2022-10-04T03:44:49;4.51;62.47
72355;SHT30;60314;55.040;73.076;2022-10-04T03:47:27;4.57;62.34
72355;SHT30;60314;55.040;73.076;2022-10-04T03:49:59;4.61;62.34
72355;SHT30;60314;55.040;73.076;2022-10-04T03:52:30;4.65;61.97
72355;SHT30;60314;55.040;73.076;2022-10-04T03:55:01;4.65;61.38
72355;SHT30;60314;55.040;73.076;2022-10-04T03:57:28;4.71;62.14
72355;SHT30;60314;55.040;73.076;2022-10-04T03:59:56;4.74;61.06
72355;SHT30;60314;55.040;73.076;2022-10-04T04:02:32;4.75;60.97
72355;SHT30;60314;55.040;73.076;2022-10-04T04:05:23;4.82;60.01
72355;SHT30;60314;55.040;73.076;2022-10-04T04:10:31;4.92;59.19
72355;SHT30;60314;55.040;73.076;2022-10-04T04:13:04;5.02;58.75
72355;SHT30;60314;55.040;73.076;2022-10-04T04:15:33;5.09;58.87
72355;SHT30;60314;55.040;73.076;2022-10-04T04:18:03;5.18;58.50
72355;SHT30;60314;55.040;73.076;2022-10-04T04:20:36;5.27;57.90
72355;SHT30;60314;55.040;73.076;2022-10-04T04:25:42;5.53;56.92
72355;SHT30;60314;55.040;73.076;2022-10-04T04:28:33;5.70;57.16
72355;SHT30;60314;55.040;73.076;2022-10-04T04:31:28;5.90;56.41
72355;SHT30;60314;55.040;73.076;2022-10-04T04:34:00;6.09;55.99
72355;SHT30;60314;55.040;73.076;2022-10-04T04:36:29;6.22;54.67
72355;SHT30;60314;55.040;73.076;2022-10-04T04:39:15;6.28;54.50
72355;SHT30;60314;55.040;73.076;2022-10-04T04:44:50;6.30;53.08
72355;SHT30;60314;55.040;73.076;2022-10-04T04:47:31;6.28;54.01
72355;SHT30;60314;55.040;73.076;2022-10-04T04:50:36;6.28;53.94
72355;SHT30;60314;55.040;73.076;2022-10-04T04:53:07;6.26;53.33
72355;SHT30;60314;55.040;73.076;2022-10-04T04:55:43;6.29;53.63
72355;SHT30;60314;55.040;73.076;2022-10-04T04:58:17;6.36;53.45
72355;SHT30;60314;55.040;73.076;2022-10-04T05:01:01;6.42;53.20
72355;SHT30;60314;55.040;73.076;2022-10-04T05:03:28;6.50;52.11
72355;SHT30;60314;55.040;73.076;2022-10-04T05:05:59;6.57;52.65
72355;SHT30;60314;55.040;73.076;2022-10-04T05:08:31;6.69;52.73
72355;SHT30;60314;55.040;73.076;2022-10-04T05:11:11;6.80;51.82
72355;SHT30;60314;55.040;73.076;2022-10-04T05:13:43;6.81;51.86
72355;SHT30;60314;55.040;73.076;2022-10-04T05:16:43;6.91;51.65
72355;SHT30;60314;55.040;73.076;2022-10-04T05:19:30;6.96;52.79
72355;SHT30;60314;55.040;73.076;2022-10-04T05:22:00;6.98;51.12
72355;SHT30;60314;55.040;73.076;2022-10-04T05:24:36;7.08;51.43
72355;SHT30;60314;55.040;73.076;2022-10-04T05:27:07;7.07;50.78
72355;SHT30;60314;55.040;73.076;2022-10-04T05:29:37;7.07;51.17
72355;SHT30;60314;55.040;73.076;2022-10-04T05:32:14;7.08;51.15
72355;SHT30;60314;55.040;73.076;2022-10-04T05:34:48;7.08;51.38
72355;SHT30;60314;55.040;73.076;2022-10-04T05:37:39;7.07;51.06
72355;SHT30;60314;55.040;73.076;2022-10-04T05:40:26;7.10;51.16
72355;SHT30;60314;55.040;73.076;2022-10-04T05:42:55;7.14;50.97
72355;SHT30;60314;55.040;73.076;2022-10-04T05:45:28;7.24;51.02
72355;SHT30;60314;55.040;73.076;2022-10-04T05:47:56;7.27;50.74
72355;SHT30;60314;55.040;73.076;2022-10-04T05:50:36;7.31;50.71
72355;SHT30;60314;55.040;73.076;2022-10-04T06:04:47;7.56;49.97
72355;SHT30;60314;55.040;73.076;2022-10-04T06:07:32;7.66;50.16
72355;SHT30;60314;55.040;73.076;2022-10-04T06:10:36;7.75;49.63
72355;SHT30;60314;55.040;73.076;2022-10-04T06:13:43;7.82;50.09
72355;SHT30;60314;55.040;73.076;2022-10-04T06:16:32;7.83;49.02
72355;SHT30;60314;55.040;73.076;2022-10-04T06:24:39;7.93;49.08
72355;SHT30;60314;55.040;73.076;2022-10-04T06:27:36;7.97;48.77
72355;SHT30;60314;55.040;73.076;2022-10-04T06:30:13;8.06;48.17
72355;SHT30;60314;55.040;73.076;2022-10-04T06:33:04;8.13;48.26
72355;SHT30;60314;55.040;73.076;2022-10-04T06:35:41;8.20;48.64
72355;SHT30;60314;55.040;73.076;2022-10-04T06:46:49;8.52;47.48
72355;SHT30;60314;55.040;73.076;2022-10-04T06:58:04;9.19;46.28
72355;SHT30;60314;55.040;73.076;2022-10-04T07:00:42;9.32;45.33
72355;SHT30;60314;55.040;73.076;2022-10-04T07:03:21;9.39;46.24
72355;SHT30;60314;55.040;73.076;2022-10-04T07:05:56;9.43;45.23
72355;SHT30;60314;55.040;73.076;2022-10-04T07:09:06;9.46;44.75
72355;SHT30;60314;55.040;73.076;2022-10-04T07:11:42;9.51;43.95
72355;SHT30;60314;55.040;73.076;2022-10-04T07:14:19;9.43;42.59
72355;SHT30;60314;55.040;73.076;2022-10-04T07:16:57;9.43;45.26
72355;SHT30;60314;55.040;73.076;2022-10-04T07:27:33;9.46;42.71
72355;SHT30;60314;55.040;73.076;2022-10-04T07:30:15;9.47;43.04
72355;SHT30;60314;55.040;73.076;2022-10-04T07:32:47;9.51;42.34
72355;SHT30;60314;55.040;73.076;2022-10-04T07:35:43;9.50;42.04
72355;SHT30;60314;55.040;73.076;2022-10-04T07:38:25;9.51;42.37
72355;SHT30;60314;55.040;73.076;2022-10-04T07:43:31;9.61;41.84
72355;SHT30;60314;55.040;73.076;2022-10-04T07:46:16;9.64;41.30
72355;SHT30;60314;55.040;73.076;2022-10-04T07:48:44;9.73;41.68
72355;SHT30;60314;55.040;73.076;2022-10-04T07:51:36;9.77;41.63
72355;SHT30;60314;55.040;73.076;2022-10-04T07:59:47;9.94;40.44
72355;SHT30;60314;55.040;73.076;2022-10-04T08:05:18;9.84;39.65
72355;SHT30;60314;55.040;73.076;2022-10-04T08:19:56;10.18;40.56
72355;SHT30;60314;55.040;73.076;2022-10-04T08:54:27;10.26;41.83
72355;SHT30;60314;55.040;73.076;2022-10-04T09:06:12;10.29;42.55
72355;SHT30;60314;55.040;73.076;2022-10-04T09:09:21;10.25;43.60
72355;SHT30;60314;55.040;73.076;2022-10-04T09:12:30;10.25;43.80
72355;SHT30;60314;55.040;73.076;2022-10-04T09:21:08;10.19;43.28
72355;SHT30;60314;55.040;73.076;2022-10-04T09:29:33;10.16;43.05
72355;SHT30;60314;55.040;73.076;2022-10-04T09:52:20;10.19;40.57
72355;SHT30;60314;55.040;73.076;2022-10-04T10:00:51;10.24;40.94
72355;SHT30;60314;55.040;73.076;2022-10-04T10:03:35;10.24;40.86
72355;SHT30;60314;55.040;73.076;2022-10-04T10:06:39;10.24;41.41
72355;SHT30;60314;55.040;73.076;2022-10-04T10:12:31;10.25;40.97
72355;SHT30;60314;55.040;73.076;2022-10-04T10:18:15;10.24;41.45
72355;SHT30;60314;55.040;73.076;2022-10-04T10:21:12;10.25;41.74
72355;SHT30;60314;55.040;73.076;2022-10-04T10:24:18;10.26;41.85
72355;SHT30;60314;55.040;73.076;2022-10-04T10:27:01;10.29;41.57
72355;SHT30;60314;55.040;73.076;2022-10-04T10:35:46;10.36;43.02
72355;SHT30;60314;55.040;73.076;2022-10-04T10:41:26;10.36;43.15
72355;SHT30;60314;55.040;73.076;2022-10-04T10:44:25;10.35;44.93
72355;SHT30;60314;55.040;73.076;2022-10-04T10:47:17;10.36;43.90
72355;SHT30;60314;55.040;73.076;2022-10-04T11:09:21;10.24;42.25
72355;SHT30;60314;55.040;73.076;2022-10-04T11:33:07;10.21;42.26
72355;SHT30;60314;55.040;73.076;2022-10-04T11:46:51;10.25;42.27
72355;SHT30;60314;55.040;73.076;2022-10-04T11:58:04;10.25;42.52
72355;SHT30;60314;55.040;73.076;2022-10-04T12:07:03;10.21;42.51
72355;SHT30;60314;55.040;73.076;2022-10-04T12:21:22;10.18;43.14
72355;SHT30;60314;55.040;73.076;2022-10-04T12:37:31;10.11;45.09
72355;SHT30;60314;55.040;73.076;2022-10-04T12:40:20;10.08;45.51
72355;SHT30;60314;55.040;73.076;2022-10-04T12:59:44;9.74;47.86
72355;SHT30;60314;55.040;73.076;2022-10-04T13:08:41;9.73;48.38
72355;SHT30;60314;55.040;73.076;2022-10-04T13:16:58;9.75;46.94
72355;SHT30;60314;55.040;73.076;2022-10-04T13:22:30;9.77;48.24
72355;SHT30;60314;55.040;73.076;2022-10-04T13:30:45;9.80;46.37
72355;SHT30;60314;55.040;73.076;2022-10-04T13:36:45;9.81;45.66
72355;SHT30;60314;55.040;73.076;2022-10-04T13:45:07;9.91;46.03
72355;SHT30;60314;55.040;73.076;2022-10-04T13:50:43;9.94;44.53
72355;SHT30;60314;55.040;73.076;2022-10-04T13:59:28;10.05;46.49
72355;SHT30;60314;55.040;73.076;2022-10-04T14:04:57;10.04;44.54
72355;SHT30;60314;55.040;73.076;2022-10-04T14:15:55;10.11;46.10
72355;SHT30;60314;55.040;73.076;2022-10-04T14:30:14;10.12;45.91
72355;SHT30;60314;55.040;73.076;2022-10-04T14:33:06;10.11;46.43
72355;SHT30;60314;55.040;73.076;2022-10-04T14:39:01;10.09;45.82
72355;SHT30;60314;55.040;73.076;2022-10-04T14:41:43;10.09;46.22
72355;SHT30;60314;55.040;73.076;2022-10-04T14:50:24;10.04;46.73
72355;SHT30;60314;55.040;73.076;2022-10-04T15:02:12;10.04;47.94
72355;SHT30;60314;55.040;73.076;2022-10-04T15:05:25;10.02;47.92
72355;SHT30;60314;55.040;73.076;2022-10-04T15:08:11;10.02;47.81
72355;SHT30;60314;55.040;73.076;2022-10-04T15:11:32;10.01;47.99
72355;SHT30;60314;55.040;73.076;2022-10-04T15:13:51;10.01;47.83
72355;SHT30;60314;55.040;73.076;2022-10-04T15:17:03;10.04;48.05
72355;SHT30;60314;55.040;73.076;2022-10-04T15:19:36;10.06;47.33
72355;SHT30;60314;55.040;73.076;2022-10-04T15:22:25;10.05;48.00
72355;SHT30;60314;55.040;73.076;2022-10-04T15:24:53;10.04;48.13
72355;SHT30;60314;55.040;73.076;2022-10-04T15:27:35;10.05;48.27
72355;SHT30;60314;55.040;73.076;2022-10-04T15:30:43;10.08;48.56
72355;SHT30;60314;55.040;73.076;2022-10-04T15:39:00;10.05;48.81
72355;SHT30;60314;55.040;73.076;2022-10-04T15:41:46;10.05;48.24
72355;SHT30;60314;55.040;73.076;2022-10-04T15:44:37;10.06;48.57
72355;SHT30;60314;55.040;73.076;2022-10-04T15:58:54;10.05;49.13
72355;SHT30;60314;55.040;73.076;2022-10-04T16:01:39;10.05;48.72
72355;SHT30;60314;55.040;73.076;2022-10-04T16:15:10;10.02;49.42
72355;SHT30;60314;55.040;73.076;2022-10-04T16:17:42;10.02;49.78
72355;SHT30;60314;55.040;73.076;2022-10-04T16:23:27;9.99;50.22
72355;SHT30;60314;55.040;73.076;2022-10-04T16:31:52;10.05;48.89
72355;SHT30;60314;55.040;73.076;2022-10-04T16:39:53;10.08;48.54
72355;SHT30;60314;55.040;73.076;2022-10-04T16:47:59;10.09;47.81
72355;SHT30;60314;55.040;73.076;2022-10-04T16:50:57;10.11;48.13
72355;SHT30;60314;55.040;73.076;2022-10-04T16:56:17;10.12;48.62
72355;SHT30;60314;55.040;73.076;2022-10-04T16:58:59;10.14;48.15
72355;SHT30;60314;55.040;73.076;2022-10-04T17:01:36;10.11;48.00
72355;SHT30;60314;55.040;73.076;2022-10-04T17:09:58;10.11;48.00
72355;SHT30;60314;55.040;73.076;2022-10-04T17:15:30;10.06;47.66
72355;SHT30;60314;55.040;73.076;2022-10-04T17:20:48;10.05;47.74
72355;SHT30;60314;55.040;73.076;2022-10-04T17:28:57;10.01;48.25
72355;SHT30;60314;55.040;73.076;2022-10-04T17:38:08;9.98;48.04
72355;SHT30;60314;55.040;73.076;2022-10-04T17:46:30;9.99;48.06
72355;SHT30;60314;55.040;73.076;2022-10-04T17:52:21;9.99;49.22
72355;SHT30;60314;55.040;73.076;2022-10-04T17:55:23;9.95;48.62
72355;SHT30;60314;55.040;73.076;2022-10-04T17:58:01;9.94;48.89
72355;SHT30;60314;55.040;73.076;2022-10-04T18:03:25;9.93;49.06
72355;SHT30;60314;55.040;73.076;2022-10-04T18:08:57;9.94;49.13
72355;SHT30;60314;55.040;73.076;2022-10-04T18:11:44;9.94;49.01
72355;SHT30;60314;55.040;73.076;2022-10-04T18:17:05;9.99;48.97
72355;SHT30;60314;55.040;73.076;2022-10-04T18:19:58;9.95;49.11
72355;SHT30;60314;55.040;73.076;2022-10-04T18:22:27;9.97;49.20
72355;SHT30;60314;55.040;73.076;2022-10-04T18:30:34;9.90;49.01
72355;SHT30;60314;55.040;73.076;2022-10-04T18:33:24;9.90;49.37
72355;SHT30;60314;55.040;73.076;2022-10-04T18:36:26;9.90;49.25
72355;SHT30;60314;55.040;73.076;2022-10-04T18:41:43;9.90;49.31
72355;SHT30;60314;55.040;73.076;2022-10-04T18:44:26;9.85;49.16
72355;SHT30;60314;55.040;73.076;2022-10-04T18:46:57;9.83;49.28
72355;SHT30;60314;55.040;73.076;2022-10-04T18:49:45;9.75;49.76
72355;SHT30;60314;55.040;73.076;2022-10-04T18:52:33;9.69;49.24
72355;SHT30;60314;55.040;73.076;2022-10-04T19:04:45;9.44;49.99
72355;SHT30;60314;55.040;73.076;2022-10-04T19:07:23;9.43;50.44
72355;SHT30;60314;55.040;73.076;2022-10-04T19:10:23;9.43;49.89
72355;SHT30;60314;55.040;73.076;2022-10-04T19:16:12;9.29;50.42
72355;SHT30;60314;55.040;73.076;2022-10-04T19:27:33;9.34;50.59
72355;SHT30;60314;55.040;73.076;2022-10-04T19:30:11;9.34;50.53
72355;SHT30;60314;55.040;73.076;2022-10-04T19:33:12;9.36;50.28
72355;SHT30;60314;55.040;73.076;2022-10-04T19:38:46;9.30;50.56
72355;SHT30;60314;55.040;73.076;2022-10-04T19:47:00;9.26;50.65
72355;SHT30;60314;55.040;73.076;2022-10-04T19:49:49;9.26;51.30
72355;SHT30;60314;55.040;73.076;2022-10-04T19:52:22;9.24;50.72
72355;SHT30;60314;55.040;73.076;2022-10-04T20:01:17;9.23;51.10
72355;SHT30;60314;55.040;73.076;2022-10-04T20:03:46;9.23;50.94
72355;SHT30;60314;55.040;73.076;2022-10-04T20:06:33;9.19;51.17
72355;SHT30;60314;55.040;73.076;2022-10-04T20:12:30;9.22;51.20
72355;SHT30;60314;55.040;73.076;2022-10-04T20:17:40;9.23;51.66
72355;SHT30;60314;55.040;73.076;2022-10-04T20:20:09;9.24;50.90
72355;SHT30;60314;55.040;73.076;2022-10-04T20:30:58;9.27;51.36
72355;SHT30;60314;55.040;73.076;2022-10-04T20:36:10;9.24;50.82
72355;SHT30;60314;55.040;73.076;2022-10-04T20:38:49;9.19;51.66
72355;SHT30;60314;55.040;73.076;2022-10-04T20:44:03;9.16;51.08
72355;SHT30;60314;55.040;73.076;2022-10-04T20:46:36;9.11;51.44
72355;SHT30;60314;55.040;73.076;2022-10-04T20:49:16;9.13;51.39
72355;SHT30;60314;55.040;73.076;2022-10-04T20:51:48;9.15;51.22
72355;SHT30;60314;55.040;73.076;2022-10-04T20:54:19;9.16;51.57
72355;SHT30;60314;55.040;73.076;2022-10-04T20:56:48;9.12;51.63
72355;SHT30;60314;55.040;73.076;2022-10-04T20:59:16;9.06;51.58
72355;SHT30;60314;55.040;73.076;2022-10-04T21:01:59;9.05;51.89
72355;SHT30;60314;55.040;73.076;2022-10-04T21:04:28;9.11;51.89
72355;SHT30;60314;55.040;73.076;2022-10-04T21:07:18;9.09;52.05
72355;SHT30;60314;55.040;73.076;2022-10-04T21:09:45;9.11;52.11
72355;SHT30;60314;55.040;73.076;2022-10-04T21:12:30;9.08;52.19
72355;SHT30;60314;55.040;73.076;2022-10-04T21:17:43;9.13;52.75
72355;SHT30;60314;55.040;73.076;2022-10-04T21:20:15;9.12;53.27
72355;SHT30;60314;55.040;73.076;2022-10-04T21:23:27;9.12;52.69
72355;SHT30;60314;55.040;73.076;2022-10-04T21:26:19;9.06;53.33
72355;SHT30;60314;55.040;73.076;2022-10-04T21:28:47;9.05;52.78
72355;SHT30;60314;55.040;73.076;2022-10-04T21:31:17;9.05;53.04
72355;SHT30;60314;55.040;73.076;2022-10-04T21:33:44;9.11;53.26
72355;SHT30;60314;55.040;73.076;2022-10-04T21:36:10;9.03;53.30
72355;SHT30;60314;55.040;73.076;2022-10-04T21:38:45;9.08;53.06
72355;SHT30;60314;55.040;73.076;2022-10-04T21:41:22;9.13;53.22
72355;SHT30;60314;55.040;73.076;2022-10-04T21:43:48;9.06;53.50
72355;SHT30;60314;55.040;73.076;2022-10-04T21:46:15;8.99;54.08
72355;SHT30;60314;55.040;73.076;2022-10-04T21:48:41;8.98;53.84
72355;SHT30;60314;55.040;73.076;2022-10-04T21:51:12;8.96;53.65
72355;SHT30;60314;55.040;73.076;2022-10-04T21:53:39;8.93;54.31
72355;SHT30;60314;55.040;73.076;2022-10-04T21:56:05;8.92;53.97
72355;SHT30;60314;55.040;73.076;2022-10-04T21:58:32;8.89;54.44
72355;SHT30;60314;55.040;73.076;2022-10-04T22:00:59;8.91;54.33
72355;SHT30;60314;55.040;73.076;2022-10-04T22:03:25;8.86;53.94
72355;SHT30;60314;55.040;73.076;2022-10-04T22:05:52;8.76;54.02
72355;SHT30;60314;55.040;73.076;2022-10-04T22:08:18;8.69;53.90
72355;SHT30;60314;55.040;73.076;2022-10-04T22:10:45;8.65;53.52
72355;SHT30;60314;55.040;73.076;2022-10-04T22:13:12;8.55;53.37
72355;SHT30;60314;55.040;73.076;2022-10-04T22:15:38;8.54;53.42
72355;SHT30;60314;55.040;73.076;2022-10-04T22:18:05;8.45;53.27
72355;SHT30;60314;55.040;73.076;2022-10-04T22:20:36;8.38;53.76
72355;SHT30;60314;55.040;73.076;2022-10-04T22:23:09;8.29;53.87
72355;SHT30;60314;55.040;73.076;2022-10-04T22:25:39;8.20;53.81
72355;SHT30;60314;55.040;73.076;2022-10-04T22:28:27;8.16;53.86
72355;SHT30;60314;55.040;73.076;2022-10-04T22:30:55;8.11;54.01
72355;SHT30;60314;55.040;73.076;2022-10-04T22:33:34;8.04;54.17
72355;SHT30;60314;55.040;73.076;2022-10-04T22:39:04;7.92;54.37
72355;SHT30;60314;55.040;73.076;2022-10-04T22:41:39;7.82;54.48
72355;SHT30;60314;55.040;73.076;2022-10-04T22:44:35;7.75;54.54
72355;SHT30;60314;55.040;73.076;2022-10-04T22:47:04;7.63;54.93
72355;SHT30;60314;55.040;73.076;2022-10-04T22:49:34;7.55;54.99
72355;SHT30;60314;55.040;73.076;2022-10-04T22:52:05;7.47;55.27
72355;SHT30;60314;55.040;73.076;2022-10-04T22:54:43;7.36;55.51
72355;SHT30;60314;55.040;73.076;2022-10-04T22:57:11;7.34;55.69
72355;SHT30;60314;55.040;73.076;2022-10-04T22:59:42;7.32;55.62
72355;SHT30;60314;55.040;73.076;2022-10-04T23:02:15;7.21;55.96
72355;SHT30;60314;55.040;73.076;2022-10-04T23:04:48;7.18;55.82
72355;SHT30;60314;55.040;73.076;2022-10-04T23:07:17;7.15;56.13
72355;SHT30;60314;55.040;73.076;2022-10-04T23:09:43;7.11;56.04
72355;SHT30;60314;55.040;73.076;2022-10-04T23:12:10;7.11;56.03
72355;SHT30;60314;55.040;73.076;2022-10-04T23:14:38;7.07;55.94
72355;SHT30;60314;55.040;73.076;2022-10-04T23:17:24;6.96;56.27
72355;SHT30;60314;55.040;73.076;2022-10-04T23:20:09;6.86;56.46
72355;SHT30;60314;55.040;73.076;2022-10-04T23:22:38;6.69;56.85
72355;SHT30;60314;55.040;73.076;2022-10-04T23:25:20;6.63;57.02
72355;SHT30;60314;55.040;73.076;2022-10-04T23:27:55;6.60;57.21
72355;SHT30;60314;55.040;73.076;2022-10-04T23:30:23;6.57;57.29
72355;SHT30;60314;55.040;73.076;2022-10-04T23:32:52;6.45;57.49
72355;SHT30;60314;55.040;73.076;2022-10-04T23:35:31;6.35;57.82
72355;SHT30;60314;55.040;73.076;2022-10-04T23:38:00;6.25;58.32
72355;SHT30;60314;55.040;73.076;2022-10-04T23:40:32;6.11;58.87
72355;SHT30;60314;55.040;73.076;2022-10-04T23:43:01;5.98;59.17
72355;SHT30;60314;55.040;73.076;2022-10-04T23:45:29;5.87;59.37
72355;SHT30;60314;55.040;73.076;2022-10-04T23:47:57;5.79;59.68
72355;SHT30;60314;55.040;73.076;2022-10-04T23:50:29;5.70;60.06
72355;SHT30;60314;55.040;73.076;2022-10-04T23:53:02;5.67;60.11
72355;SHT30;60314;55.040;73.076;2022-10-04T23:55:32;5.64;60.46
72355;SHT30;60314;55.040;73.076;2022-10-04T23:58:00;5.71;60.41
